Time;durP1;ratioP1;P1;durP2;ratioP2;P2;SDS_P1;SDS_P2;PMS_P1;PMS_P2;Temp;Humidity;BMP_temperature;BMP_pressure;BME280_temperature;BME280_humidity;BME280_pressure;Samples;Min_cycle;Max_cycle;Signal;HPM_P1;HPM_P2
2021/11/27 00:01:16;;;;;;;;;38.25;38.00;;;;;8.01;77.29;100743.66;4812019;29;11786;-70
2021/11/27 00:04:12;;;;;;;;;32.00;32.00;;;;;8.05;77.37;100747.41;4826105;29;11784;-71
2021/11/27 00:07:08;;;;;;;;;21.25;20.50;;;;;8.19;78.60;100733.56;4842471;29;11748;-71
2021/11/27 00:10:05;;;;;;;;;26.50;26.50;;;;;8.32;78.38;100725.25;4842266;29;12585;-70
2021/11/27 00:13:02;;;;;;;;;48.75;41.00;;;;;8.44;79.65;100727.47;4842651;29;11861;-71
2021/11/27 00:15:59;;;;;;;;;15.50;15.50;;;;;8.53;80.64;100713.72;4828709;29;11760;-71
2021/11/27 00:18:55;;;;;;;;;19.25;19.25;;;;;8.57;80.57;100707.25;4824060;29;11681;-71
2021/11/27 00:21:51;;;;;;;;;21.00;18.25;;;;;8.68;80.33;100707.00;4811894;29;11685;-71
2021/11/27 00:24:46;;;;;;;;;15.75;15.75;;;;;8.81;80.66;100706.03;4825950;29;11672;-72
2021/11/27 00:27:42;;;;;;;;;5.75;3.50;;;;;8.85;80.91;100699.59;4824059;29;12483;-72
2021/11/27 00:30:39;;;;;;;;;16.50;15.75;;;;;8.85;81.28;100691.31;4823789;29;11642;-72
2021/11/27 00:33:35;;;;;;;;;14.25;12.50;;;;;8.96;80.96;100675.28;4823903;29;11713;-72
2021/11/27 00:36:31;;;;;;;;;19.50;19.50;;;;;8.90;81.40;100665.53;4834205;29;11668;-72
2021/11/27 00:39:27;;;;;;;;;15.00;15.00;;;;;9.07;81.08;100667.53;4841736;29;11718;-71
2021/11/27 00:42:23;;;;;;;;;12.25;12.25;;;;;8.93;81.71;100651.09;4842083;29;11693;-72
2021/11/27 00:45:20;;;;;;;;;13.50;13.50;;;;;9.08;80.90;100645.13;4840550;29;11438;-72
2021/11/27 00:48:17;;;;;;;;;12.75;12.75;;;;;9.08;81.08;100649.84;4823580;29;11699;-72
2021/11/27 00:51:04;;;;;;;;;15.25;15.00;;;;;8.96;81.42;100639.41;4810283;29;11708;-72
2021/11/27 00:54:01;;;;;;;;;19.00;19.00;;;;;9.12;80.89;100637.84;4824139;29;11764;-72
2021/11/27 00:56:56;;;;;;;;;16.50;16.50;;;;;9.05;80.75;100634.75;4824606;29;11682;-72
2021/11/27 00:59:52;;;;;;;;;14.75;14.25;;;;;8.99;80.57;100630.50;4823113;29;11685;-72
2021/11/27 01:02:34;;;;;;;;;15.00;15.00;;;;;9.04;80.83;100619.31;4824330;29;11644;-72
2021/11/27 01:05:31;;;;;;;;;14.50;12.75;;;;;9.16;80.54;100630.53;4823831;29;11420;-72
2021/11/27 01:08:27;;;;;;;;;13.50;13.50;;;;;9.17;80.40;100626.63;4841323;29;12454;-72
2021/11/27 01:11:00;;;;;;;;;14.25;14.25;;;;;9.23;80.52;100615.44;4842596;29;11690;-72
2021/11/27 01:14:00;;;;;;;;;15.00;15.00;;;;;9.27;80.54;100610.91;4841566;29;11414;-72
2021/11/27 01:16:34;;;;;;;;;12.75;12.75;;;;;9.29;81.10;100608.66;4834269;29;11652;-72
2021/11/27 01:19:31;;;;;;;;;11.50;11.50;;;;;9.32;80.83;100596.94;4840526;29;11751;-71
2021/11/27 01:22:27;;;;;;;;;11.00;11.00;;;;;9.28;81.64;100602.31;4841389;29;11423;-71
2021/11/27 01:25:24;;;;;;;;;12.50;12.50;;;;;9.30;81.84;100600.03;4828661;29;11648;-71
2021/11/27 01:28:21;;;;;;;;;12.00;12.00;;;;;9.41;81.80;100593.03;4823781;29;11282;-71
2021/11/27 01:31:18;;;;;;;;;15.75;14.25;;;;;9.47;82.00;100582.66;4823679;29;11607;-72
2021/11/27 01:34:14;;;;;;;;;16.00;14.00;;;;;9.41;81.91;100575.66;4823830;29;11541;-73
2021/11/27 01:37:10;;;;;;;;;12.75;12.75;;;;;9.46;81.92;100561.72;4823783;29;11682;-72
2021/11/27 01:40:10;;;;;;;;;15.75;15.75;;;;;9.46;82.01;100562.53;4822948;29;11708;-71
2021/11/27 01:43:06;;;;;;;;;16.50;15.50;;;;;9.45;82.49;100554.56;4822995;29;11381;-71
2021/11/27 01:46:03;;;;;;;;;14.00;14.00;;;;;9.48;82.67;100559.44;4830726;29;11724;-72
2021/11/27 01:49:00;;;;;;;;;11.75;11.75;;;;;9.50;82.34;100553.56;4828756;29;11328;-72
2021/11/27 01:51:56;;;;;;;;;17.50;17.00;;;;;9.45;82.66;100560.09;4841113;29;11288;-72
2021/11/27 01:54:52;;;;;;;;;13.00;13.00;;;;;9.53;82.38;100545.47;4838069;29;11690;-72
2021/11/27 01:57:47;;;;;;;;;16.50;16.50;;;;;9.58;82.35;100548.03;4839875;29;11740;-72
2021/11/27 02:00:48;;;;;;;;;14.25;14.25;;;;;9.57;82.46;100553.88;4844656;29;11808;-71
2021/11/27 02:03:44;;;;;;;;;9.25;9.25;;;;;9.66;82.82;100543.63;4844874;29;11661;-72
2021/11/27 02:06:43;;;;;;;;;13.25;13.25;;;;;9.57;82.67;100538.13;4830394;29;11090;-72
2021/11/27 02:09:39;;;;;;;;;11.75;11.75;;;;;9.65;82.92;100547.53;4840856;29;11330;-72
2021/11/27 02:12:25;;;;;;;;;15.25;15.25;;;;;9.65;83.32;100548.34;4845540;29;11306;-72
2021/11/27 02:15:14;;;;;;;;;6.25;5.50;;;;;9.66;83.24;100544.47;4841327;29;12007;-72
2021/11/27 02:18:09;;;;;;;;;10.25;10.25;;;;;9.77;83.32;100544.94;4825820;29;11255;-72
2021/11/27 02:21:11;;;;;;;;;11.25;11.00;;;;;9.79;83.53;100542.63;4825942;29;11150;-72
2021/11/27 02:23:39;;;;;;;;;11.00;11.00;;;;;9.84;83.64;100538.91;4838455;29;11037;-72
2021/11/27 02:26:35;;;;;;;;;12.00;11.00;;;;;9.86;83.61;100526.38;4818994;29;11075;-72
2021/11/27 02:29:32;;;;;;;;;11.25;11.25;;;;;9.92;83.61;100530.59;4825797;29;10886;-72
2021/11/27 02:32:28;;;;;;;;;9.00;9.00;;;;;9.91;83.80;100519.88;4825891;29;11138;-71
2021/11/27 02:35:24;;;;;;;;;10.50;10.50;;;;;9.99;83.94;100514.31;4820051;29;11095;-71
2021/11/27 02:38:20;;;;;;;;;8.00;8.00;;;;;10.09;83.41;100515.88;4831507;29;11221;-71
2021/11/27 02:40:48;;;;;;;;;9.00;9.00;;;;;10.10;83.58;100525.78;4844981;29;10824;-71
2021/11/27 02:43:44;;;;;;;;;8.50;8.50;;;;;10.14;83.92;100523.19;4831659;29;11175;-71
2021/11/27 02:46:40;;;;;;;;;9.50;9.00;;;;;10.25;83.79;100516.16;4825792;29;10871;-71
2021/11/27 02:49:36;;;;;;;;;10.50;10.50;;;;;10.16;83.97;100507.88;4825336;29;10937;-71
2021/11/27 02:52:33;;;;;;;;;6.75;6.75;;;;;10.23;84.13;100512.94;4825647;29;11145;-72
2021/11/27 02:55:28;;;;;;;;;7.25;7.25;;;;;10.26;84.72;100499.25;4836802;29;10961;-71
2021/11/27 02:58:15;;;;;;;;;9.00;9.00;;;;;10.35;84.95;100512.22;4844494;29;10810;-71
2021/11/27 03:01:11;;;;;;;;;7.00;7.00;;;;;10.41;85.03;100508.13;4843844;29;10865;-72
2021/11/27 03:03:40;;;;;;;;;6.00;6.00;;;;;10.38;85.66;100508.78;4844723;29;10958;-72
2021/11/27 03:06:36;;;;;;;;;7.00;7.00;;;;;10.36;86.20;100500.84;4826392;29;10778;-72
2021/11/27 03:09:32;;;;;;;;;7.00;7.00;;;;;10.42;86.63;100488.41;4824482;29;10894;-72
2021/11/27 03:12:01;;;;;;;;;7.00;7.00;;;;;10.48;86.07;100480.75;4826176;29;10950;-72
2021/11/27 03:14:29;;;;;;;;;8.50;8.50;;;;;10.49;86.23;100476.84;4810080;29;10732;-72
2021/11/27 03:17:25;;;;;;;;;8.00;8.00;;;;;10.35;87.19;100467.97;4825788;29;10702;-73
2021/11/27 03:19:55;;;;;;;;;9.25;7.00;;;;;10.45;86.71;100451.81;4825944;29;10742;-73
2021/11/27 03:22:51;;;;;;;;;8.00;8.00;;;;;10.40;86.45;100448.44;4824928;29;10838;-73
2021/11/27 03:25:47;;;;;;;;;11.75;11.75;;;;;10.53;86.62;100447.38;4825784;29;10850;-73
2021/11/27 03:28:46;;;;;;;;;8.75;8.75;;;;;10.48;86.32;100440.09;4824801;29;10911;-72
2021/11/27 03:31:42;;;;;;;;;10.25;10.25;;;;;10.47;86.73;100434.91;4824873;29;10766;-72
2021/11/27 03:34:18;;;;;;;;;7.50;7.50;;;;;10.52;86.46;100435.53;4826056;29;10864;-72
2021/11/27 03:37:14;;;;;;;;;10.00;9.75;;;;;10.53;86.81;100441.84;4842708;29;10684;-72
2021/11/27 03:40:11;;;;;;;;;7.25;7.25;;;;;10.50;85.73;100423.97;4842767;29;10785;-72
2021/11/27 03:43:07;;;;;;;;;8.00;8.00;;;;;10.57;85.32;100424.22;4843210;29;10659;-72
2021/11/27 03:46:02;;;;;;;;;12.00;10.25;;;;;10.57;85.42;100424.22;4831210;29;10840;-73
2021/11/27 03:48:58;;;;;;;;;8.25;7.75;;;;;10.48;85.91;100409.66;4824598;29;11076;-73
2021/11/27 03:51:55;;;;;;;;;8.75;8.25;;;;;10.52;85.64;100409.81;4825364;29;10717;-72
2021/11/27 03:54:51;;;;;;;;;9.00;8.00;;;;;10.42;86.42;100411.00;4838439;29;10804;-73
2021/11/27 03:57:46;;;;;;;;;10.50;9.00;;;;;10.46;86.26;100405.63;4824443;29;10924;-73
2021/11/27 04:00:42;;;;;;;;;8.00;8.00;;;;;10.42;86.41;100410.22;4824353;29;10778;-73
2021/11/27 04:03:41;;;;;;;;;7.25;7.25;;;;;10.52;86.15;100404.28;4824784;29;10777;-73
2021/11/27 04:06:37;;;;;;;;;7.75;7.75;;;;;10.41;86.54;100403.06;4841279;29;10934;-72
2021/11/27 04:09:33;;;;;;;;;12.25;8.50;;;;;10.42;87.16;100407.44;4842408;29;10646;-72
2021/11/27 04:12:14;;;;;;;;;8.75;7.75;;;;;10.46;87.59;100400.09;4843340;29;10777;-72
2021/11/27 04:14:43;;;;;;;;;8.75;8.75;;;;;10.52;87.33;100405.09;4841853;29;10561;-73
2021/11/27 04:17:39;;;;;;;;;8.00;8.00;;;;;10.48;87.88;100400.56;4829812;29;10670;-73
2021/11/27 04:20:21;;;;;;;;;6.00;6.00;;;;;10.55;87.72;100403.59;4842891;29;10645;-73
2021/11/27 04:23:17;;;;;;;;;8.00;8.00;;;;;10.52;87.97;100393.25;4824121;29;10807;-74
2021/11/27 04:25:45;;;;;;;;;8.00;8.00;;;;;10.55;87.96;100396.13;4825375;29;10666;-74
2021/11/27 04:28:42;;;;;;;;;7.50;7.50;;;;;10.46;88.85;100394.56;4842122;29;10878;-74
2021/11/27 04:31:37;;;;;;;;;11.00;11.00;;;;;10.49;89.13;100393.91;4842067;29;10650;-74
2021/11/27 04:34:33;;;;;;;;;7.00;7.00;;;;;10.49;89.04;100388.38;4826059;29;11064;-73
2021/11/27 04:37:29;;;;;;;;;8.75;8.00;;;;;10.55;89.26;100406.38;4841980;29;10916;-74
2021/11/27 04:40:26;;;;;;;;;8.50;8.25;;;;;10.56;89.62;100385.88;4841964;29;10867;-74
2021/11/27 04:43:22;;;;;;;;;9.00;8.25;;;;;10.52;89.55;100396.81;4841730;29;11002;-73
2021/11/27 04:46:04;;;;;;;;;10.25;10.25;;;;;10.46;90.51;100400.09;4840984;29;10986;-76
2021/11/27 04:48:46;;;;;;;;;6.75;6.75;;;;;10.51;90.48;100402.69;4842617;29;10971;-73
2021/11/27 04:51:41;;;;;;;;;7.75;7.75;;;;;10.45;90.58;100391.00;4841887;29;10627;-74
2021/11/27 04:54:37;;;;;;;;;7.00;7.00;;;;;10.46;90.69;100389.03;4828617;29;10736;-74
2021/11/27 04:57:33;;;;;;;;;11.25;11.25;;;;;10.45;91.04;100390.19;4823696;29;10862;-75
2021/11/27 05:00:08;;;;;;;;;7.50;7.50;;;;;10.48;91.08;100389.50;4824534;29;10958;-73
2021/11/27 05:03:04;;;;;;;;;7.25;7.25;;;;;10.51;91.43;100402.69;4823583;29;10737;-74
2021/11/27 05:05:59;;;;;;;;;7.25;7.25;;;;;10.52;91.30;100398.75;4826434;29;10945;-74
2021/11/27 05:08:55;;;;;;;;;9.50;9.50;;;;;10.37;91.93;100391.06;4823372;29;10785;-73
2021/11/27 05:11:51;;;;;;;;;9.25;9.25;;;;;10.50;91.90;100388.03;4823266;29;10907;-73
2021/11/27 05:14:36;;;;;;;;;11.75;10.50;;;;;10.54;91.58;100386.22;4825132;29;10803;-74
2021/11/27 05:17:04;;;;;;;;;10.25;10.25;;;;;10.54;91.32;100388.16;4833424;29;10785;-73
2021/11/27 05:20:00;;;;;;;;;5.75;3.75;;;;;10.48;91.72;100382.03;4841172;29;10777;-73
2021/11/27 05:22:27;;;;;;;;;8.00;7.75;;;;;10.45;91.82;100376.38;4842358;29;10861;-74
2021/11/27 05:25:23;;;;;;;;;9.00;9.00;;;;;10.33;92.48;100381.81;4840323;29;10740;-74
2021/11/27 05:28:20;;;;;;;;;16.00;16.00;;;;;10.38;92.61;100379.69;4841139;29;10849;-74
2021/11/27 05:31:17;;;;;;;;;7.50;7.50;;;;;10.44;92.42;100383.06;4841204;29;10993;-73
2021/11/27 05:34:33;;;;;;;;;12.75;12.50;;;;;10.45;92.48;100381.91;4841073;29;10777;-74
2021/11/27 05:37:29;;;;;;;;;7.00;7.00;;;;;10.45;92.95;100391.00;4819371;29;10775;-74
2021/11/27 05:40:24;;;;;;;;;7.00;7.00;;;;;10.36;93.12;100383.94;4831930;29;10698;-75
2021/11/27 05:43:20;;;;;;;;;15.75;15.50;;;;;10.40;93.08;100379.34;4823066;29;11019;-75
2021/11/27 05:46:16;;;;;;;;;7.50;7.50;;;;;10.40;93.57;100380.13;4836233;29;11036;-75
2021/11/27 05:49:12;;;;;;;;;15.25;14.00;;;;;10.38;93.66;100387.16;4840989;29;10549;-75
2021/11/27 05:52:08;;;;;;;;;9.00;9.00;;;;;10.45;93.35;100377.19;4828073;29;11166;-75
2021/11/27 05:55:05;;;;;;;;;8.25;8.25;;;;;10.51;93.04;100380.56;4823859;29;10782;-75
2021/11/27 05:57:55;;;;;;;;;12.25;12.25;;;;;10.49;93.32;100378.09;4823556;29;11625;-75
2021/11/27 06:00:52;;;;;;;;;12.25;12.25;;;;;10.47;92.92;100380.41;4810470;29;10946;-75
2021/11/27 06:03:47;;;;;;;;;9.00;9.00;;;;;10.47;92.94;100371.31;4822868;29;10873;-75
2021/11/27 06:06:43;;;;;;;;;6.75;6.75;;;;;10.42;92.79;100372.31;4823674;29;10815;-74
2021/11/27 06:09:38;;;;;;;;;28.25;28.00;;;;;10.47;93.00;100360.25;4836057;29;10494;-74
2021/11/27 06:12:34;;;;;;;;;11.00;11.00;;;;;10.49;92.53;100361.53;4840837;29;11366;-75
2021/11/27 06:15:30;;;;;;;;;22.00;20.00;;;;;10.47;92.53;100365.78;4840201;29;11074;-75
2021/11/27 06:17:59;;;;;;;;;15.50;15.50;;;;;10.51;92.42;100372.28;4839588;29;11004;-75
2021/11/27 06:20:31;;;;;;;;;7.00;7.00;;;;;10.27;92.51;100365.47;4823632;29;11698;-76
2021/11/27 06:23:26;;;;;;;;;12.75;12.75;;;;;10.41;92.35;100364.34;4822606;29;10758;-75
2021/11/27 06:25:54;;;;;;;;;11.75;10.75;;;;;10.40;92.25;100362.75;4824435;29;10758;-75
2021/11/27 06:28:51;;;;;;;;;10.25;10.25;;;;;10.43;92.07;100367.63;4828105;29;11459;-73
2021/11/27 06:31:47;;;;;;;;;12.50;12.50;;;;;10.47;92.09;100346.44;4840675;29;10630;-75
2021/11/27 06:34:17;;;;;;;;;12.75;12.50;;;;;10.36;92.41;100342.47;4841497;29;11615;-73
2021/11/27 06:37:13;;;;;;;;;8.75;8.75;;;;;10.38;92.28;100329.91;4840391;29;11007;-74
2021/11/27 06:40:10;;;;;;;;;11.75;11.75;;;;;10.44;92.20;100336.06;4838418;29;10806;-75
2021/11/27 06:43:06;;;;;;;;;19.25;17.75;;;;;10.38;92.34;100334.63;4840661;29;10795;-75
2021/11/27 06:46:02;;;;;;;;;12.00;12.00;;;;;10.48;91.98;100325.94;4842851;29;11135;-75
2021/11/27 06:48:43;;;;;;;;;8.25;8.25;;;;;10.32;92.54;100313.88;4836914;29;10979;-75
2021/11/27 06:51:14;;;;;;;;;7.00;7.00;;;;;10.37;92.37;100294.31;4844907;29;10806;-75
2021/11/27 06:54:10;;;;;;;;;9.25;8.75;;;;;10.38;92.60;100299.50;4843328;29;10790;-75
2021/11/27 06:57:06;;;;;;;;;9.00;9.00;;;;;10.44;92.32;100308.41;4831323;29;10810;-75
2021/11/27 07:00:06;;;;;;;;;13.25;13.25;;;;;10.43;92.97;100306.81;4840735;29;10810;-75
2021/11/27 07:03:02;;;;;;;;;20.25;18.00;;;;;10.45;93.54;100318.31;4841936;29;11055;-75
2021/11/27 07:05:57;;;;;;;;;8.00;8.00;;;;;10.41;92.85;100300.78;4843470;29;10999;-75
2021/11/27 07:08:53;;;;;;;;;7.75;6.75;;;;;10.38;93.52;100309.75;4840572;29;10788;-74
2021/11/27 07:11:49;;;;;;;;;11.75;11.75;;;;;10.42;94.04;100303.19;4837422;29;10711;-75
2021/11/27 07:14:45;;;;;;;;;7.00;7.00;;;;;10.43;93.70;100295.75;4841872;29;10945;-74
2021/11/27 07:17:41;;;;;;;;;4.00;4.00;;;;;10.44;93.97;100291.81;4841673;29;10792;-76
2021/11/27 07:20:10;;;;;;;;;6.25;6.25;;;;;10.37;94.00;100284.06;4842421;29;10868;-74
2021/11/27 07:22:46;;;;;;;;;7.75;7.75;;;;;10.30;94.03;100286.59;4839124;29;10786;-75
2021/11/27 07:25:16;;;;;;;;;7.00;7.00;;;;;10.29;94.25;100290.50;4830829;29;10674;-75
2021/11/27 07:28:12;;;;;;;;;9.00;9.00;;;;;10.52;93.59;100288.16;4831321;29;10912;-76
2021/11/27 07:31:07;;;;;;;;;14.75;11.75;;;;;10.53;93.20;100311.91;4826148;29;10785;-74
2021/11/27 07:34:03;;;;;;;;;14.00;10.25;;;;;10.45;93.25;100304.50;4812590;29;10844;-74
2021/11/27 07:36:58;;;;;;;;;7.50;7.50;;;;;10.36;94.35;100303.78;4824471;29;11000;-75
2021/11/27 07:39:26;;;;;;;;;6.00;6.00;;;;;10.48;93.61;100295.50;4810156;29;10851;-73
2021/11/27 07:42:16;;;;;;;;;9.00;9.00;;;;;10.52;93.85;100299.22;4835910;29;10811;-74
2021/11/27 07:44:44;;;;;;;;;11.50;11.50;;;;;10.52;93.75;100293.69;4825728;29;10717;-74
2021/11/27 07:47:14;;;;;;;;;14.00;14.00;;;;;10.56;93.98;100280.78;4838085;29;10942;-74
2021/11/27 07:50:10;;;;;;;;;9.00;9.00;;;;;10.60;93.68;100290.03;4841518;29;10845;-74
2021/11/27 07:53:05;;;;;;;;;12.25;12.25;;;;;10.74;93.09;100276.72;4824559;29;10936;-74
2021/11/27 07:56:01;;;;;;;;;9.75;9.75;;;;;10.79;93.27;100276.47;4811929;29;10938;-74
2021/11/27 07:58:57;;;;;;;;;18.75;16.25;;;;;10.77;93.21;100280.75;4811971;29;10828;-73
2021/11/27 08:01:52;;;;;;;;;13.50;13.50;;;;;10.76;93.60;100274.41;4837483;29;10877;-75
2021/11/27 08:04:48;;;;;;;;;10.50;10.50;;;;;10.72;94.63;100262.41;4842437;29;10883;-75
2021/11/27 08:07:44;;;;;;;;;9.75;9.00;;;;;10.85;94.46;100254.94;4842304;29;10819;-75
2021/11/27 08:10:39;;;;;;;;;11.50;11.50;;;;;10.90;94.42;100254.75;4838588;29;10751;-75
2021/11/27 08:13:35;;;;;;;;;14.75;14.50;;;;;10.94;94.24;100268.69;4842141;29;10670;-73
2021/11/27 08:16:31;;;;;;;;;24.50;23.25;;;;;10.87;94.57;100263.69;4840678;29;10766;-74
2021/11/27 08:19:28;;;;;;;;;14.00;14.00;;;;;11.07;94.47;100257.28;4840664;29;11036;-73
2021/11/27 08:22:24;;;;;;;;;9.75;9.75;;;;;11.12;94.35;100261.81;4833545;29;10593;-74
2021/11/27 08:25:20;;;;;;;;;13.00;13.00;;;;;11.17;94.68;100255.22;4824029;29;10619;-74
2021/11/27 08:28:16;;;;;;;;;12.50;12.50;;;;;11.26;94.38;100253.13;4823893;29;10578;-74
2021/11/27 08:31:12;;;;;;;;;16.50;15.25;;;;;11.15;94.84;100252.78;4823731;29;10708;-75
2021/11/27 08:34:11;;;;;;;;;13.00;12.00;;;;;11.29;94.93;100244.16;4824220;29;10836;-75
2021/11/27 08:37:07;;;;;;;;;8.00;8.00;;;;;11.22;95.05;100241.97;4823971;29;10597;-74
2021/11/27 08:40:03;;;;;;;;;13.00;13.00;;;;;11.24;95.35;100250.72;4823540;29;10660;-74
2021/11/27 08:42:59;;;;;;;;;15.50;14.75;;;;;11.30;95.53;100235.50;4823404;29;10583;-74
2021/11/27 08:45:55;;;;;;;;;12.50;11.00;;;;;11.35;94.92;100226.97;4836383;29;11228;-73
2021/11/27 08:48:51;;;;;;;;;13.25;13.25;;;;;11.29;95.47;100227.53;4823544;29;10615;-75
2021/11/27 08:51:46;;;;;;;;;12.25;12.25;;;;;11.47;95.54;100217.81;4839539;29;10779;-73
2021/11/27 08:54:42;;;;;;;;;17.25;17.25;;;;;11.50;95.34;100222.69;4824418;29;10652;-76
2021/11/27 08:57:38;;;;;;;;;13.75;13.75;;;;;11.57;95.09;100213.75;4829389;29;10586;-73
2021/11/27 09:00:34;;;;;;;;;11.75;11.75;;;;;11.67;94.76;100216.06;4833310;29;10636;-75
2021/11/27 09:03:30;;;;;;;;;19.75;16.75;;;;;11.66;94.36;100214.47;4830952;29;10547;-75
2021/11/27 09:06:26;;;;;;;;;15.25;14.50;;;;;11.68;94.25;100217.69;4840541;29;10633;-74
2021/11/27 09:09:22;;;;;;;;;16.00;16.00;;;;;11.69;94.37;100206.25;4839162;29;10432;-73
2021/11/27 09:12:20;;;;;;;;;12.00;11.50;;;;;11.73;94.69;100203.59;4818093;29;11098;-75
2021/11/27 09:15:16;;;;;;;;;12.50;12.50;;;;;11.69;94.61;100209.00;4841344;29;10381;-71
2021/11/27 09:18:12;;;;;;;;;36.00;31.00;;;;;12.20;97.00;100203.00;4839885;29;10380;-71
2021/11/27 09:21:08;;;;;;;;;30.50;29.75;;;;;12.48;96.42;100192.66;4833391;29;11744;-72
2021/11/27 09:24:04;;;;;;;;;51.25;44.00;;;;;12.90;96.22;100189.41;4841225;29;11292;-71
2021/11/27 09:27:00;;;;;;;;;43.50;39.50;;;;;12.69;93.50;100188.84;4841267;29;11448;-70
2021/11/27 09:29:56;;;;;;;;;43.25;39.50;;;;;12.90;93.77;100188.59;4829053;29;11484;-70
2021/11/27 09:32:51;;;;;;;;;14.25;14.25;;;;;12.76;92.15;100177.94;4827067;29;11287;-70
2021/11/27 09:36:00;;;;;;;;;57.00;48.00;;;;;13.02;93.35;100174.59;4823272;29;10198;-71
2021/11/27 09:38:56;;;;;;;;;16.75;15.75;;;;;12.88;91.99;100169.53;4822861;29;11282;-71
2021/11/27 09:41:53;;;;;;;;;25.00;25.00;;;;;12.89;91.19;100171.13;4837409;29;10171;-71
2021/11/27 09:44:51;;;;;;;;;28.25;28.25;;;;;12.94;92.07;100161.72;4840344;29;10025;-71
2021/11/27 09:47:49;;;;;;;;;16.00;16.00;;;;;12.90;90.70;100158.88;4836774;29;10285;-72
2021/11/27 09:50:45;;;;;;;;;21.50;21.50;;;;;12.78;90.96;100153.41;4840891;29;10017;-72
2021/11/27 09:53:42;;;;;;;;;24.00;23.25;;;;;13.30;92.34;100147.53;4840300;29;10153;-71
2021/11/27 09:56:39;;;;;;;;;17.25;17.25;;;;;13.41;90.40;100146.97;4827969;29;10120;-71
2021/11/27 09:59:36;;;;;;;;;12.25;10.75;;;;;13.18;90.31;100149.59;4836583;29;10529;-72
2021/11/27 10:02:32;;;;;;;;;17.50;17.50;;;;;13.51;91.00;100150.00;4834190;29;9701;-72
2021/11/27 10:05:28;;;;;;;;;14.25;13.00;;;;;13.59;89.70;100145.41;4837216;29;10032;-71
2021/11/27 10:08:24;;;;;;;;;15.25;14.75;;;;;13.67;90.02;100157.47;4840716;29;9767;-72
2021/11/27 10:11:20;;;;;;;;;18.00;17.25;;;;;13.44;89.32;100149.03;4841006;29;9643;-72
2021/11/27 10:14:17;;;;;;;;;13.75;13.50;;;;;13.55;89.47;100156.41;4840823;29;9888;-72
2021/11/27 10:17:17;;;;;;;;;12.50;12.50;;;;;13.53;88.57;100158.75;4840870;29;9824;-71
2021/11/27 10:20:17;;;;;;;;;12.25;12.25;;;;;13.29;89.98;100159.81;4844207;29;9528;-72
2021/11/27 10:23:13;;;;;;;;;12.00;12.00;;;;;13.52;90.23;100165.50;4844169;29;10494;-73
2021/11/27 10:26:09;;;;;;;;;18.25;17.00;;;;;13.40;88.63;100162.03;4844440;29;9633;-73
2021/11/27 10:29:33;;;;;;;;;15.25;12.50;;;;;13.46;89.19;100157.81;4843397;29;9775;-71
2021/11/27 10:32:38;;;;;;;;;12.75;12.75;;;;;13.53;88.69;100161.53;4831552;29;10663;-70
2021/11/27 10:35:34;;;;;;;;;9.67;8.33;;;;;13.52;89.10;100159.94;4831805;29;9708;-73
2021/11/27 10:38:44;;;;;;;;;12.67;12.67;;;;;13.48;89.37;100152.69;4843988;29;10275;-73
2021/11/27 10:42:10;;;;;;;;;15.00;13.67;;;;;13.64;88.34;100154.22;4843964;29;9525;-72
2021/11/27 10:45:15;;;;;;;;;16.00;14.00;;;;;13.77;89.52;100157.69;4844300;29;9476;-71
2021/11/27 10:48:13;;;;;;;;;19.50;17.00;;;;;13.72;88.27;100157.97;4844104;29;9591;-71
2021/11/27 10:51:19;;;;;;;;;11.33;11.33;;;;;13.71;88.07;100152.78;4843981;29;9499;-72
2021/11/27 10:54:15;;;;;;;;;14.33;14.33;;;;;13.69;88.20;100167.03;4843999;29;9468;-72
2021/11/27 10:57:36;;;;;;;;;16.00;14.75;;;;;13.52;89.18;100162.72;4843836;29;9676;-72
2021/11/27 11:00:45;;;;;;;;;12.75;12.50;;;;;13.68;88.86;100161.84;4843697;29;9540;-72
2021/11/27 11:03:41;;;;;;;;;16.00;12.67;;;;;13.72;88.17;100165.50;4831522;29;9597;-71
2021/11/27 11:06:36;;;;;;;;;11.67;11.67;;;;;13.72;88.05;100157.97;4843717;29;9466;-73
2021/11/27 11:09:32;;;;;;;;;7.75;7.75;;;;;13.66;88.04;100161.41;4843491;29;10275;-72
2021/11/27 11:12:38;;;;;;;;;13.50;13.50;;;;;13.62;87.92;100167.69;4843554;29;9736;-71
2021/11/27 11:15:24;;;;;;;;;11.33;11.33;;;;;13.72;88.21;100171.06;4844321;29;9555;-72
2021/11/27 11:18:10;;;;;;;;;4.00;3.67;;;;;13.89;88.42;100178.97;4844584;29;9456;-72
2021/11/27 11:21:00;;;;;;;;;10.00;10.00;;;;;13.79;88.04;100176.75;4844465;29;9468;-72
2021/11/27 11:23:38;;;;;;;;;9.33;9.33;;;;;13.72;88.01;100169.06;4840968;29;9380;-71
2021/11/27 11:26:18;;;;;;;;;11.00;11.00;;;;;13.65;88.39;100160.63;4829223;29;9378;-75
2021/11/27 11:28:59;;;;;;;;;17.00;15.67;;;;;13.67;88.02;100160.25;4810025;29;9562;-74
2021/11/27 11:31:55;;;;;;;;;16.50;16.00;;;;;13.51;88.65;100152.78;4834747;29;10341;-74
2021/11/27 11:34:53;;;;;;;;;13.25;13.25;;;;;13.47;89.09;100160.22;4843019;29;9673;-75
2021/11/27 11:37:48;;;;;;;;;15.67;15.33;;;;;13.47;88.94;100153.84;4841424;29;9684;-75
2021/11/27 11:40:45;;;;;;;;;16.00;16.00;;;;;13.50;89.22;100164.25;4840856;29;9502;-74
2021/11/27 11:43:42;;;;;;;;;13.33;13.33;;;;;13.44;89.60;100162.91;4831892;29;9776;-73
2021/11/27 11:46:32;;;;;;;;;10.33;10.33;;;;;13.41;89.77;100171.97;4836171;29;9380;-73
2021/11/27 11:49:04;;;;;;;;;19.00;17.00;;;;;13.37;90.02;100171.91;4843862;29;9367;-72
2021/11/27 11:51:44;;;;;;;;;15.67;15.67;;;;;13.30;90.46;100178.09;4843848;29;9550;-74
2021/11/27 11:54:15;;;;;;;;;10.75;10.75;;;;;13.35;90.06;100174.25;4844180;29;9451;-74
2021/11/27 11:56:44;;;;;;;;;16.75;16.50;;;;;13.27;90.32;100183.56;4827847;29;9427;-73
2021/11/27 11:59:20;;;;;;;;;16.75;16.75;;;;;13.25;90.19;100185.88;4843915;29;9704;-74
2021/11/27 12:02:11;;;;;;;;;12.00;11.75;;;;;13.13;90.37;100189.56;4842134;29;9647;-73
2021/11/27 12:05:05;;;;;;;;;15.50;14.25;;;;;13.16;90.67;100188.03;4843020;29;9609;-73
2021/11/27 12:07:43;;;;;;;;;17.00;17.00;;;;;13.32;90.47;100186.06;4843874;29;9601;-73
2021/11/27 12:10:46;;;;;;;;;16.25;16.25;;;;;13.42;90.35;100185.50;4832126;29;9848;-73
2021/11/27 12:13:16;;;;;;;;;16.50;16.50;;;;;13.49;89.65;100182.88;4843397;29;10736;-73
2021/11/27 12:16:12;;;;;;;;;17.50;16.50;;;;;13.37;89.51;100179.41;4842335;29;9959;-72
2021/11/27 12:19:07;;;;;;;;;22.25;20.75;;;;;13.27;89.83;100183.56;4833526;29;10104;-73
2021/11/27 12:22:39;;;;;;;;;23.25;23.00;;;;;13.29;90.39;100187.59;4824144;29;10127;-73
2021/11/27 12:25:35;;;;;;;;;18.00;18.00;;;;;13.22;90.17;100204.06;4842437;29;10069;-74
2021/11/27 12:28:31;;;;;;;;;17.50;17.50;;;;;13.27;90.01;100191.91;4842675;29;9971;-74
2021/11/27 12:31:45;;;;;;;;;19.25;18.50;;;;;13.17;90.81;100200.72;4830252;29;9851;-74
2021/11/27 12:34:43;;;;;;;;;20.75;20.75;;;;;13.37;90.07;100198.88;4835284;29;10040;-74
2021/11/27 12:37:39;;;;;;;;;20.25;20.25;;;;;13.49;89.93;100205.09;4823900;29;9798;-73
2021/11/27 12:40:36;;;;;;;;;18.75;18.25;;;;;13.39;90.53;100194.53;4823881;29;9792;-73
2021/11/27 12:43:32;;;;;;;;;17.00;17.00;;;;;13.32;90.83;100203.50;4823759;29;9848;-73
2021/11/27 12:46:31;;;;;;;;;18.75;17.75;;;;;13.31;90.84;100203.88;4824688;29;9844;-72
2021/11/27 12:49:35;;;;;;;;;22.00;21.75;;;;;13.31;90.83;100206.66;4840768;29;9773;-72
2021/11/27 12:52:39;;;;;;;;;21.00;19.50;;;;;13.14;91.69;100207.00;4841852;29;9928;-72
2021/11/27 12:55:28;;;;;;;;;18.50;18.50;;;;;13.12;91.57;100212.13;4842645;29;9781;-73
2021/11/27 12:57:56;;;;;;;;;19.00;19.00;;;;;13.22;90.85;100211.59;4842742;29;9941;-72
2021/11/27 13:00:26;;;;;;;;;19.75;19.75;;;;;13.20;91.13;100206.41;4842709;29;9719;-73
2021/11/27 13:03:04;;;;;;;;;24.25;22.50;;;;;13.24;90.97;100212.84;4826219;29;10113;-73
2021/11/27 13:05:40;;;;;;;;;19.25;19.25;;;;;13.06;91.80;100198.50;4842432;29;10031;-72
2021/11/27 13:08:10;;;;;;;;;21.75;21.75;;;;;13.26;91.29;100202.19;4829235;29;10847;-74
2021/11/27 13:11:10;;;;;;;;;19.25;19.25;;;;;13.33;90.68;100207.09;4824940;29;9983;-73
2021/11/27 13:14:05;;;;;;;;;22.50;22.50;;;;;13.28;90.45;100207.38;4841052;29;9972;-73